sensor_id;sensor_type;location;lat;lon;timestamp;P1;durP1;ratioP1;P2;durP2;ratioP2
43628;SDS011;56545;48.224;11.678;2022-08-16T00:00:13;2.45;;;1.25;;
43628;SDS011;56545;48.224;11.678;2022-08-16T00:02:41;2.30;;;1.30;;
43628;SDS011;56545;48.224;11.678;2022-08-16T00:05:07;1.92;;;1.30;;
43628;SDS011;56545;48.224;11.678;2022-08-16T00:07:34;3.17;;;1.20;;
43628;SDS011;56545;48.224;11.678;2022-08-16T00:10:00;2.33;;;1.45;;
43628;SDS011;56545;48.224;11.678;2022-08-16T00:12:29;2.47;;;1.20;;
43628;SDS011;56545;48.224;11.678;2022-08-16T00:14:56;4.05;;;1.60;;
43628;SDS011;56545;48.224;11.678;2022-08-16T00:17:24;2.53;;;1.40;;
43628;SDS011;56545;48.224;11.678;2022-08-16T00:19:50;2.40;;;1.40;;
43628;SDS011;56545;48.224;11.678;2022-08-16T00:22:17;3.85;;;1.40;;
43628;SDS011;56545;48.224;11.678;2022-08-16T00:24:43;4.07;;;1.40;;
43628;SDS011;56545;48.224;11.678;2022-08-16T00:27:09;3.17;;;1.30;;
43628;SDS011;56545;48.224;11.678;2022-08-16T00:29:35;3.38;;;1.48;;
43628;SDS011;56545;48.224;11.678;2022-08-16T00:32:03;3.10;;;1.40;;
43628;SDS011;56545;48.224;11.678;2022-08-16T00:34:30;5.10;;;1.30;;
43628;SDS011;56545;48.224;11.678;2022-08-16T00:36:56;2.50;;;1.30;;
43628;SDS011;56545;48.224;11.678;2022-08-16T00:39:22;4.70;;;1.52;;
43628;SDS011;56545;48.224;11.678;2022-08-16T00:41:48;2.92;;;1.50;;
43628;SDS011;56545;48.224;11.678;2022-08-16T00:44:15;2.97;;;1.45;;
43628;SDS011;56545;48.224;11.678;2022-08-16T00:46:50;3.80;;;1.40;;
43628;SDS011;56545;48.224;11.678;2022-08-16T00:49:25;3.58;;;1.50;;
43628;SDS011;56545;48.224;11.678;2022-08-16T00:51:51;3.22;;;1.58;;
43628;SDS011;56545;48.224;11.678;2022-08-16T00:54:18;2.90;;;1.50;;
43628;SDS011;56545;48.224;11.678;2022-08-16T00:56:46;4.90;;;1.50;;
43628;SDS011;56545;48.224;11.678;2022-08-16T00:59:14;3.25;;;1.50;;
43628;SDS011;56545;48.224;11.678;2022-08-16T01:01:42;4.57;;;1.33;;
43628;SDS011;56545;48.224;11.678;2022-08-16T01:04:09;3.00;;;1.50;;
43628;SDS011;56545;48.224;11.678;2022-08-16T01:06:37;2.15;;;1.38;;
43628;SDS011;56545;48.224;11.678;2022-08-16T01:09:05;4.75;;;1.60;;
43628;SDS011;56545;48.224;11.678;2022-08-16T01:11:32;4.28;;;1.73;;
43628;SDS011;56545;48.224;11.678;2022-08-16T01:14:02;2.85;;;1.30;;
43628;SDS011;56545;48.224;11.678;2022-08-16T01:16:43;2.38;;;1.30;;
43628;SDS011;56545;48.224;11.678;2022-08-16T01:19:14;2.88;;;1.70;;
43628;SDS011;56545;48.224;11.678;2022-08-16T01:21:52;2.40;;;1.40;;
43628;SDS011;56545;48.224;11.678;2022-08-16T01:24:29;3.22;;;1.40;;
43628;SDS011;56545;48.224;11.678;2022-08-16T01:27:29;3.05;;;1.40;;
43628;SDS011;56545;48.224;11.678;2022-08-16T01:30:07;3.95;;;1.40;;
43628;SDS011;56545;48.224;11.678;2022-08-16T01:32:35;2.38;;;1.30;;
43628;SDS011;56545;48.224;11.678;2022-08-16T01:35:06;2.58;;;1.50;;
43628;SDS011;56545;48.224;11.678;2022-08-16T01:37:45;6.15;;;1.40;;
43628;SDS011;56545;48.224;11.678;2022-08-16T01:40:14;3.72;;;1.50;;
43628;SDS011;56545;48.224;11.678;2022-08-16T01:42:43;3.10;;;1.35;;
43628;SDS011;56545;48.224;11.678;2022-08-16T01:45:10;2.55;;;1.52;;
43628;SDS011;56545;48.224;11.678;2022-08-16T01:47:36;2.97;;;1.50;;
43628;SDS011;56545;48.224;11.678;2022-08-16T01:50:05;3.97;;;1.60;;
43628;SDS011;56545;48.224;11.678;2022-08-16T01:52:32;2.78;;;1.60;;
43628;SDS011;56545;48.224;11.678;2022-08-16T01:54:59;3.15;;;1.52;;
43628;SDS011;56545;48.224;11.678;2022-08-16T01:57:25;2.53;;;1.55;;
43628;SDS011;56545;48.224;11.678;2022-08-16T01:59:52;3.25;;;1.50;;
43628;SDS011;56545;48.224;11.678;2022-08-16T02:02:18;3.38;;;1.60;;
43628;SDS011;56545;48.224;11.678;2022-08-16T02:04:45;2.92;;;1.50;;
43628;SDS011;56545;48.224;11.678;2022-08-16T02:07:11;2.47;;;1.52;;
43628;SDS011;56545;48.224;11.678;2022-08-16T02:09:40;3.22;;;1.70;;
43628;SDS011;56545;48.224;11.678;2022-08-16T02:12:07;3.08;;;1.60;;
43628;SDS011;56545;48.224;11.678;2022-08-16T02:14:33;2.42;;;1.40;;
43628;SDS011;56545;48.224;11.678;2022-08-16T02:17:01;3.90;;;1.75;;
43628;SDS011;56545;48.224;11.678;2022-08-16T02:19:30;2.50;;;1.40;;
43628;SDS011;56545;48.224;11.678;2022-08-16T02:21:57;2.90;;;1.58;;
43628;SDS011;56545;48.224;11.678;2022-08-16T02:24:24;2.60;;;1.50;;
43628;SDS011;56545;48.224;11.678;2022-08-16T02:26:50;3.85;;;1.90;;
43628;SDS011;56545;48.224;11.678;2022-08-16T02:29:17;6.05;;;2.90;;
43628;SDS011;56545;48.224;11.678;2022-08-16T02:31:44;5.72;;;2.53;;
43628;SDS011;56545;48.224;11.678;2022-08-16T02:34:11;5.80;;;2.80;;
43628;SDS011;56545;48.224;11.678;2022-08-16T02:36:39;7.88;;;3.50;;
43628;SDS011;56545;48.224;11.678;2022-08-16T02:39:06;14.07;;;7.13;;
43628;SDS011;56545;48.224;11.678;2022-08-16T02:41:32;20.02;;;11.38;;
43628;SDS011;56545;48.224;11.678;2022-08-16T02:44:00;24.75;;;15.00;;
43628;SDS011;56545;48.224;11.678;2022-08-16T02:46:27;28.85;;;17.70;;
43628;SDS011;56545;48.224;11.678;2022-08-16T02:48:52;26.00;;;16.35;;
43628;SDS011;56545;48.224;11.678;2022-08-16T02:51:18;25.00;;;15.00;;
43628;SDS011;56545;48.224;11.678;2022-08-16T02:53:45;18.17;;;9.90;;
43628;SDS011;56545;48.224;11.678;2022-08-16T02:56:13;18.83;;;11.43;;
43628;SDS011;56545;48.224;11.678;2022-08-16T02:58:42;14.30;;;7.72;;
43628;SDS011;56545;48.224;11.678;2022-08-16T03:01:09;11.35;;;5.85;;
43628;SDS011;56545;48.224;11.678;2022-08-16T03:03:36;10.77;;;5.07;;
43628;SDS011;56545;48.224;11.678;2022-08-16T03:06:02;7.13;;;3.80;;
43628;SDS011;56545;48.224;11.678;2022-08-16T03:08:28;6.38;;;3.22;;
43628;SDS011;56545;48.224;11.678;2022-08-16T03:10:54;4.57;;;2.72;;
43628;SDS011;56545;48.224;11.678;2022-08-16T03:13:20;5.07;;;2.33;;
43628;SDS011;56545;48.224;11.678;2022-08-16T03:15:47;4.47;;;2.17;;
43628;SDS011;56545;48.224;11.678;2022-08-16T03:18:13;5.93;;;2.00;;
43628;SDS011;56545;48.224;11.678;2022-08-16T03:20:39;4.05;;;2.05;;
43628;SDS011;56545;48.224;11.678;2022-08-16T03:23:06;5.63;;;1.92;;
43628;SDS011;56545;48.224;11.678;2022-08-16T03:25:32;4.38;;;2.05;;
43628;SDS011;56545;48.224;11.678;2022-08-16T03:30:29;3.53;;;1.95;;
43628;SDS011;56545;48.224;11.678;2022-08-16T03:32:56;3.60;;;1.92;;
43628;SDS011;56545;48.224;11.678;2022-08-16T03:35:24;3.60;;;1.80;;
43628;SDS011;56545;48.224;11.678;2022-08-16T03:37:56;5.20;;;2.20;;
43628;SDS011;56545;48.224;11.678;2022-08-16T03:40:23;3.33;;;1.75;;
43628;SDS011;56545;48.224;11.678;2022-08-16T03:42:50;3.20;;;1.80;;
43628;SDS011;56545;48.224;11.678;2022-08-16T03:45:16;3.70;;;1.90;;
43628;SDS011;56545;48.224;11.678;2022-08-16T03:47:42;4.50;;;1.95;;
43628;SDS011;56545;48.224;11.678;2022-08-16T03:50:11;4.70;;;2.00;;
43628;SDS011;56545;48.224;11.678;2022-08-16T03:52:38;3.67;;;2.00;;
43628;SDS011;56545;48.224;11.678;2022-08-16T03:55:05;3.83;;;1.83;;
43628;SDS011;56545;48.224;11.678;2022-08-16T03:57:33;5.00;;;2.00;;
43628;SDS011;56545;48.224;11.678;2022-08-16T04:00:00;4.80;;;2.10;;
43628;SDS011;56545;48.224;11.678;2022-08-16T04:02:36;6.40;;;2.00;;
43628;SDS011;56545;48.224;11.678;2022-08-16T04:05:02;5.68;;;2.35;;
43628;SDS011;56545;48.224;11.678;2022-08-16T04:07:30;4.43;;;1.83;;
43628;SDS011;56545;48.224;11.678;2022-08-16T04:09:56;3.45;;;2.13;;
43628;SDS011;56545;48.224;11.678;2022-08-16T04:12:22;4.85;;;2.13;;
43628;SDS011;56545;48.224;11.678;2022-08-16T04:14:48;3.00;;;1.77;;
43628;SDS011;56545;48.224;11.678;2022-08-16T04:17:15;5.35;;;1.98;;
43628;SDS011;56545;48.224;11.678;2022-08-16T04:19:41;3.92;;;1.90;;
43628;SDS011;56545;48.224;11.678;2022-08-16T04:22:09;3.95;;;1.70;;
43628;SDS011;56545;48.224;11.678;2022-08-16T04:24:35;3.83;;;2.00;;
43628;SDS011;56545;48.224;11.678;2022-08-16T04:27:02;5.28;;;2.05;;
43628;SDS011;56545;48.224;11.678;2022-08-16T04:29:28;4.75;;;2.00;;
43628;SDS011;56545;48.224;11.678;2022-08-16T04:31:54;5.07;;;1.83;;
43628;SDS011;56545;48.224;11.678;2022-08-16T04:34:20;5.25;;;2.00;;
43628;SDS011;56545;48.224;11.678;2022-08-16T04:36:47;5.15;;;2.10;;
43628;SDS011;56545;48.224;11.678;2022-08-16T04:39:13;3.65;;;1.73;;
43628;SDS011;56545;48.224;11.678;2022-08-16T04:41:39;5.70;;;2.00;;
43628;SDS011;56545;48.224;11.678;2022-08-16T04:44:05;4.07;;;1.95;;
43628;SDS011;56545;48.224;11.678;2022-08-16T04:46:31;3.10;;;1.70;;
43628;SDS011;56545;48.224;11.678;2022-08-16T04:48:57;3.47;;;1.80;;
43628;SDS011;56545;48.224;11.678;2022-08-16T04:51:23;3.47;;;1.67;;
43628;SDS011;56545;48.224;11.678;2022-08-16T04:53:49;3.78;;;1.70;;
43628;SDS011;56545;48.224;11.678;2022-08-16T04:56:17;3.45;;;1.77;;
43628;SDS011;56545;48.224;11.678;2022-08-16T04:58:43;4.35;;;2.08;;
43628;SDS011;56545;48.224;11.678;2022-08-16T05:01:10;4.65;;;1.70;;
43628;SDS011;56545;48.224;11.678;2022-08-16T05:03:36;3.92;;;1.83;;
43628;SDS011;56545;48.224;11.678;2022-08-16T05:06:02;4.13;;;1.83;;
43628;SDS011;56545;48.224;11.678;2022-08-16T05:08:29;4.03;;;2.13;;
43628;SDS011;56545;48.224;11.678;2022-08-16T05:10:55;6.20;;;2.03;;
43628;SDS011;56545;48.224;11.678;2022-08-16T05:13:22;7.85;;;2.70;;
43628;SDS011;56545;48.224;11.678;2022-08-16T05:15:48;8.65;;;2.30;;
43628;SDS011;56545;48.224;11.678;2022-08-16T05:18:14;4.60;;;2.22;;
43628;SDS011;56545;48.224;11.678;2022-08-16T05:20:40;5.35;;;2.15;;
43628;SDS011;56545;48.224;11.678;2022-08-16T05:23:06;3.85;;;2.10;;
43628;SDS011;56545;48.224;11.678;2022-08-16T05:25:32;8.68;;;2.17;;
43628;SDS011;56545;48.224;11.678;2022-08-16T05:27:58;5.85;;;2.20;;
43628;SDS011;56545;48.224;11.678;2022-08-16T05:30:24;5.50;;;2.10;;
43628;SDS011;56545;48.224;11.678;2022-08-16T05:32:50;6.20;;;2.10;;
43628;SDS011;56545;48.224;11.678;2022-08-16T05:35:16;7.85;;;1.95;;
43628;SDS011;56545;48.224;11.678;2022-08-16T05:37:42;7.25;;;2.20;;
43628;SDS011;56545;48.224;11.678;2022-08-16T05:40:09;6.43;;;2.22;;
43628;SDS011;56545;48.224;11.678;2022-08-16T05:42:36;4.95;;;2.15;;
43628;SDS011;56545;48.224;11.678;2022-08-16T05:45:03;5.20;;;2.25;;
43628;SDS011;56545;48.224;11.678;2022-08-16T05:47:30;7.22;;;2.60;;
43628;SDS011;56545;48.224;11.678;2022-08-16T05:49:56;5.50;;;2.20;;
43628;SDS011;56545;48.224;11.678;2022-08-16T05:52:21;5.10;;;1.80;;
43628;SDS011;56545;48.224;11.678;2022-08-16T05:54:47;4.50;;;2.38;;
43628;SDS011;56545;48.224;11.678;2022-08-16T05:57:14;6.90;;;2.13;;
43628;SDS011;56545;48.224;11.678;2022-08-16T05:59:41;10.98;;;2.17;;
43628;SDS011;56545;48.224;11.678;2022-08-16T06:02:07;6.47;;;2.22;;
43628;SDS011;56545;48.224;11.678;2022-08-16T06:04:33;4.97;;;1.92;;
43628;SDS011;56545;48.224;11.678;2022-08-16T06:06:59;6.57;;;2.10;;
43628;SDS011;56545;48.224;11.678;2022-08-16T06:09:29;4.57;;;1.88;;
43628;SDS011;56545;48.224;11.678;2022-08-16T06:11:55;6.13;;;1.77;;
43628;SDS011;56545;48.224;11.678;2022-08-16T06:14:21;3.15;;;1.73;;
43628;SDS011;56545;48.224;11.678;2022-08-16T06:16:47;5.32;;;1.70;;
43628;SDS011;56545;48.224;11.678;2022-08-16T06:19:13;3.38;;;1.95;;
43628;SDS011;56545;48.224;11.678;2022-08-16T06:21:39;7.18;;;1.95;;
43628;SDS011;56545;48.224;11.678;2022-08-16T06:24:05;6.85;;;1.85;;
43628;SDS011;56545;48.224;11.678;2022-08-16T06:26:31;5.03;;;1.95;;
43628;SDS011;56545;48.224;11.678;2022-08-16T06:28:57;4.50;;;1.88;;
43628;SDS011;56545;48.224;11.678;2022-08-16T06:31:23;4.38;;;1.80;;
43628;SDS011;56545;48.224;11.678;2022-08-16T06:33:49;4.60;;;1.60;;
43628;SDS011;56545;48.224;11.678;2022-08-16T06:36:15;5.18;;;1.58;;
43628;SDS011;56545;48.224;11.678;2022-08-16T06:38:41;3.90;;;1.70;;
43628;SDS011;56545;48.224;11.678;2022-08-16T06:41:08;5.40;;;1.98;;
43628;SDS011;56545;48.224;11.678;2022-08-16T06:43:34;4.22;;;1.80;;
43628;SDS011;56545;48.224;11.678;2022-08-16T06:46:02;4.40;;;1.50;;
43628;SDS011;56545;48.224;11.678;2022-08-16T06:48:31;3.13;;;1.70;;
43628;SDS011;56545;48.224;11.678;2022-08-16T06:50:57;4.90;;;1.80;;
43628;SDS011;56545;48.224;11.678;2022-08-16T06:53:23;3.83;;;1.70;;
43628;SDS011;56545;48.224;11.678;2022-08-16T06:55:50;6.53;;;2.42;;
43628;SDS011;56545;48.224;11.678;2022-08-16T06:58:19;6.93;;;2.15;;
43628;SDS011;56545;48.224;11.678;2022-08-16T07:00:45;7.68;;;1.88;;
43628;SDS011;56545;48.224;11.678;2022-08-16T07:03:12;8.05;;;1.70;;
43628;SDS011;56545;48.224;11.678;2022-08-16T07:05:38;3.67;;;1.48;;
43628;SDS011;56545;48.224;11.678;2022-08-16T07:08:05;5.15;;;1.55;;
43628;SDS011;56545;48.224;11.678;2022-08-16T07:10:31;4.75;;;1.65;;
43628;SDS011;56545;48.224;11.678;2022-08-16T07:12:57;7.57;;;1.80;;
43628;SDS011;56545;48.224;11.678;2022-08-16T07:15:23;8.02;;;1.77;;
43628;SDS011;56545;48.224;11.678;2022-08-16T07:17:49;3.80;;;1.30;;
43628;SDS011;56545;48.224;11.678;2022-08-16T07:20:15;4.65;;;1.65;;
43628;SDS011;56545;48.224;11.678;2022-08-16T07:22:43;9.40;;;5.00;;
43628;SDS011;56545;48.224;11.678;2022-08-16T07:25:11;5.60;;;1.50;;
43628;SDS011;56545;48.224;11.678;2022-08-16T07:27:38;3.33;;;1.73;;
43628;SDS011;56545;48.224;11.678;2022-08-16T07:30:07;5.32;;;1.70;;
43628;SDS011;56545;48.224;11.678;2022-08-16T07:32:34;3.47;;;1.45;;
43628;SDS011;56545;48.224;11.678;2022-08-16T07:35:01;5.53;;;1.25;;
43628;SDS011;56545;48.224;11.678;2022-08-16T07:37:27;3.00;;;1.60;;
43628;SDS011;56545;48.224;11.678;2022-08-16T07:39:53;3.42;;;1.60;;
43628;SDS011;56545;48.224;11.678;2022-08-16T07:42:18;4.07;;;1.70;;
43628;SDS011;56545;48.224;11.678;2022-08-16T07:44:44;6.45;;;1.60;;
43628;SDS011;56545;48.224;11.678;2022-08-16T07:47:10;3.38;;;1.75;;
43628;SDS011;56545;48.224;11.678;2022-08-16T07:49:36;8.77;;;2.08;;
43628;SDS011;56545;48.224;11.678;2022-08-16T07:52:02;8.55;;;1.65;;
43628;SDS011;56545;48.224;11.678;2022-08-16T07:54:28;5.47;;;1.67;;
43628;SDS011;56545;48.224;11.678;2022-08-16T07:56:54;3.40;;;1.23;;
43628;SDS011;56545;48.224;11.678;2022-08-16T07:59:20;5.63;;;1.70;;
43628;SDS011;56545;48.224;11.678;2022-08-16T08:01:48;4.72;;;1.83;;
43628;SDS011;56545;48.224;11.678;2022-08-16T08:04:16;4.93;;;1.75;;
43628;SDS011;56545;48.224;11.678;2022-08-16T08:06:43;10.05;;;2.13;;
43628;SDS011;56545;48.224;11.678;2022-08-16T08:09:09;4.50;;;1.60;;
43628;SDS011;56545;48.224;11.678;2022-08-16T08:11:35;3.72;;;1.58;;
43628;SDS011;56545;48.224;11.678;2022-08-16T08:14:01;4.95;;;2.00;;
43628;SDS011;56545;48.224;11.678;2022-08-16T08:16:28;5.05;;;1.83;;
43628;SDS011;56545;48.224;11.678;2022-08-16T08:18:54;3.85;;;1.63;;
43628;SDS011;56545;48.224;11.678;2022-08-16T08:21:21;2.88;;;1.50;;
43628;SDS011;56545;48.224;11.678;2022-08-16T08:23:50;4.00;;;1.67;;
43628;SDS011;56545;48.224;11.678;2022-08-16T08:26:16;3.25;;;1.77;;
43628;SDS011;56545;48.224;11.678;2022-08-16T08:28:43;6.25;;;1.83;;
43628;SDS011;56545;48.224;11.678;2022-08-16T08:31:09;3.50;;;1.60;;
43628;SDS011;56545;48.224;11.678;2022-08-16T08:33:37;3.67;;;1.60;;
43628;SDS011;56545;48.224;11.678;2022-08-16T08:36:04;3.75;;;1.70;;
43628;SDS011;56545;48.224;11.678;2022-08-16T08:38:31;4.95;;;1.77;;
43628;SDS011;56545;48.224;11.678;2022-08-16T08:40:59;5.15;;;1.73;;
43628;SDS011;56545;48.224;11.678;2022-08-16T08:43:26;4.40;;;1.60;;
43628;SDS011;56545;48.224;11.678;2022-08-16T08:45:52;5.07;;;1.73;;
43628;SDS011;56545;48.224;11.678;2022-08-16T08:48:19;10.40;;;2.25;;
43628;SDS011;56545;48.224;11.678;2022-08-16T08:50:46;5.90;;;2.30;;
43628;SDS011;56545;48.224;11.678;2022-08-16T08:53:13;6.63;;;1.90;;
43628;SDS011;56545;48.224;11.678;2022-08-16T08:55:40;4.90;;;2.10;;
43628;SDS011;56545;48.224;11.678;2022-08-16T08:58:06;5.95;;;1.98;;
43628;SDS011;56545;48.224;11.678;2022-08-16T09:00:33;44.55;;;4.68;;
43628;SDS011;56545;48.224;11.678;2022-08-16T09:03:02;28.42;;;3.78;;
43628;SDS011;56545;48.224;11.678;2022-08-16T09:05:28;20.02;;;3.00;;
43628;SDS011;56545;48.224;11.678;2022-08-16T09:07:54;7.70;;;2.03;;
43628;SDS011;56545;48.224;11.678;2022-08-16T09:10:20;5.10;;;1.83;;
43628;SDS011;56545;48.224;11.678;2022-08-16T09:12:46;9.30;;;2.03;;
43628;SDS011;56545;48.224;11.678;2022-08-16T09:15:13;4.82;;;2.00;;
43628;SDS011;56545;48.224;11.678;2022-08-16T09:17:41;4.18;;;1.80;;
43628;SDS011;56545;48.224;11.678;2022-08-16T09:20:08;5.35;;;2.00;;
43628;SDS011;56545;48.224;11.678;2022-08-16T09:22:37;4.43;;;1.80;;
43628;SDS011;56545;48.224;11.678;2022-08-16T09:25:03;5.25;;;1.90;;
43628;SDS011;56545;48.224;11.678;2022-08-16T09:27:29;3.17;;;1.73;;
43628;SDS011;56545;48.224;11.678;2022-08-16T09:32:24;5.63;;;1.75;;
43628;SDS011;56545;48.224;11.678;2022-08-16T09:34:50;11.85;;;7.38;;
43628;SDS011;56545;48.224;11.678;2022-08-16T09:37:15;30.80;;;4.45;;
43628;SDS011;56545;48.224;11.678;2022-08-16T09:39:42;11.95;;;2.70;;
43628;SDS011;56545;48.224;11.678;2022-08-16T09:42:08;5.05;;;1.90;;
43628;SDS011;56545;48.224;11.678;2022-08-16T09:44:35;5.85;;;1.90;;
43628;SDS011;56545;48.224;11.678;2022-08-16T09:47:01;4.53;;;1.90;;
43628;SDS011;56545;48.224;11.678;2022-08-16T09:49:27;7.30;;;2.00;;
43628;SDS011;56545;48.224;11.678;2022-08-16T09:51:54;6.07;;;2.05;;
43628;SDS011;56545;48.224;11.678;2022-08-16T09:54:21;5.88;;;1.80;;
43628;SDS011;56545;48.224;11.678;2022-08-16T09:56:48;5.97;;;1.90;;
43628;SDS011;56545;48.224;11.678;2022-08-16T09:59:15;4.47;;;2.00;;
43628;SDS011;56545;48.224;11.678;2022-08-16T10:01:41;5.28;;;2.00;;
43628;SDS011;56545;48.224;11.678;2022-08-16T10:04:12;3.75;;;1.90;;
43628;SDS011;56545;48.224;11.678;2022-08-16T10:06:39;5.90;;;2.10;;
43628;SDS011;56545;48.224;11.678;2022-08-16T10:09:09;10.23;;;2.20;;
43628;SDS011;56545;48.224;11.678;2022-08-16T10:11:36;4.75;;;2.05;;
43628;SDS011;56545;48.224;11.678;2022-08-16T10:14:21;4.85;;;1.90;;
43628;SDS011;56545;48.224;11.678;2022-08-16T10:16:49;4.80;;;1.95;;
43628;SDS011;56545;48.224;11.678;2022-08-16T10:19:15;4.68;;;1.98;;
43628;SDS011;56545;48.224;11.678;2022-08-16T10:21:41;4.90;;;2.05;;
43628;SDS011;56545;48.224;11.678;2022-08-16T10:24:08;3.15;;;1.70;;
43628;SDS011;56545;48.224;11.678;2022-08-16T10:26:35;4.25;;;1.90;;
43628;SDS011;56545;48.224;11.678;2022-08-16T10:29:01;4.78;;;1.73;;
43628;SDS011;56545;48.224;11.678;2022-08-16T10:31:29;5.78;;;2.00;;
43628;SDS011;56545;48.224;11.678;2022-08-16T10:33:56;5.72;;;2.00;;
43628;SDS011;56545;48.224;11.678;2022-08-16T10:36:21;8.77;;;2.20;;
43628;SDS011;56545;48.224;11.678;2022-08-16T10:38:47;6.53;;;1.90;;
43628;SDS011;56545;48.224;11.678;2022-08-16T10:41:14;5.03;;;2.00;;
43628;SDS011;56545;48.224;11.678;2022-08-16T10:43:40;5.55;;;1.90;;
43628;SDS011;56545;48.224;11.678;2022-08-16T10:46:07;5.75;;;2.00;;
43628;SDS011;56545;48.224;11.678;2022-08-16T10:48:39;4.35;;;2.00;;
43628;SDS011;56545;48.224;11.678;2022-08-16T10:51:08;5.70;;;2.00;;
43628;SDS011;56545;48.224;11.678;2022-08-16T10:53:34;5.72;;;2.00;;
43628;SDS011;56545;48.224;11.678;2022-08-16T10:56:02;5.20;;;2.03;;
43628;SDS011;56545;48.224;11.678;2022-08-16T10:58:30;5.80;;;1.80;;
43628;SDS011;56545;48.224;11.678;2022-08-16T11:00:57;4.28;;;1.90;;
43628;SDS011;56545;48.224;11.678;2022-08-16T11:03:23;4.75;;;2.15;;
43628;SDS011;56545;48.224;11.678;2022-08-16T11:05:52;5.57;;;2.00;;
43628;SDS011;56545;48.224;11.678;2022-08-16T11:08:18;3.08;;;1.75;;
43628;SDS011;56545;48.224;11.678;2022-08-16T11:10:45;4.35;;;1.90;;
43628;SDS011;56545;48.224;11.678;2022-08-16T11:13:15;8.82;;;2.10;;
43628;SDS011;56545;48.224;11.678;2022-08-16T11:15:43;9.00;;;2.20;;
43628;SDS011;56545;48.224;11.678;2022-08-16T11:18:10;9.00;;;1.88;;
43628;SDS011;56545;48.224;11.678;2022-08-16T11:20:38;5.50;;;1.85;;
43628;SDS011;56545;48.224;11.678;2022-08-16T11:23:05;6.63;;;1.92;;
43628;SDS011;56545;48.224;11.678;2022-08-16T11:25:31;5.97;;;1.80;;
43628;SDS011;56545;48.224;11.678;2022-08-16T11:27:58;6.72;;;1.80;;
43628;SDS011;56545;48.224;11.678;2022-08-16T11:30:25;7.47;;;2.25;;
43628;SDS011;56545;48.224;11.678;2022-08-16T11:32:53;6.80;;;1.90;;
43628;SDS011;56545;48.224;11.678;2022-08-16T11:35:20;5.32;;;2.00;;
43628;SDS011;56545;48.224;11.678;2022-08-16T11:37:49;7.07;;;2.00;;
43628;SDS011;56545;48.224;11.678;2022-08-16T11:40:20;14.18;;;2.70;;
43628;SDS011;56545;48.224;11.678;2022-08-16T11:42:47;4.72;;;1.90;;
43628;SDS011;56545;48.224;11.678;2022-08-16T11:45:13;63.67;;;9.20;;
43628;SDS011;56545;48.224;11.678;2022-08-16T11:47:39;14.02;;;3.33;;
43628;SDS011;56545;48.224;11.678;2022-08-16T11:50:06;3.10;;;1.80;;
43628;SDS011;56545;48.224;11.678;2022-08-16T11:52:33;4.68;;;2.20;;
43628;SDS011;56545;48.224;11.678;2022-08-16T11:55:01;7.07;;;2.00;;
43628;SDS011;56545;48.224;11.678;2022-08-16T11:57:28;5.05;;;1.90;;
43628;SDS011;56545;48.224;11.678;2022-08-16T11:59:54;5.28;;;1.83;;
43628;SDS011;56545;48.224;11.678;2022-08-16T12:02:21;6.13;;;2.30;;
43628;SDS011;56545;48.224;11.678;2022-08-16T12:04:47;6.47;;;2.22;;
43628;SDS011;56545;48.224;11.678;2022-08-16T12:07:13;5.65;;;1.98;;
43628;SDS011;56545;48.224;11.678;2022-08-16T12:09:39;5.18;;;1.90;;
43628;SDS011;56545;48.224;11.678;2022-08-16T12:12:05;4.97;;;2.03;;
43628;SDS011;56545;48.224;11.678;2022-08-16T12:14:33;7.00;;;2.13;;
43628;SDS011;56545;48.224;11.678;2022-08-16T12:16:59;3.85;;;1.75;;
43628;SDS011;56545;48.224;11.678;2022-08-16T12:19:27;7.05;;;2.00;;
43628;SDS011;56545;48.224;11.678;2022-08-16T12:21:53;7.15;;;1.90;;
43628;SDS011;56545;48.224;11.678;2022-08-16T12:24:20;35.75;;;5.30;;
43628;SDS011;56545;48.224;11.678;2022-08-16T12:26:46;10.85;;;2.67;;
43628;SDS011;56545;48.224;11.678;2022-08-16T12:29:12;6.72;;;2.28;;
43628;SDS011;56545;48.224;11.678;2022-08-16T12:31:40;6.68;;;2.30;;
43628;SDS011;56545;48.224;11.678;2022-08-16T12:34:06;3.83;;;1.80;;
43628;SDS011;56545;48.224;11.678;2022-08-16T12:36:33;4.78;;;1.90;;
43628;SDS011;56545;48.224;11.678;2022-08-16T12:39:03;14.13;;;10.52;;
43628;SDS011;56545;48.224;11.678;2022-08-16T12:41:32;3.90;;;2.10;;
43628;SDS011;56545;48.224;11.678;2022-08-16T12:44:01;4.68;;;2.10;;
43628;SDS011;56545;48.224;11.678;2022-08-16T12:46:28;3.83;;;2.00;;
43628;SDS011;56545;48.224;11.678;2022-08-16T12:48:54;3.85;;;1.83;;
43628;SDS011;56545;48.224;11.678;2022-08-16T12:51:28;8.57;;;2.25;;
43628;SDS011;56545;48.224;11.678;2022-08-16T12:54:04;6.22;;;1.85;;
43628;SDS011;56545;48.224;11.678;2022-08-16T12:56:34;5.57;;;2.10;;
43628;SDS011;56545;48.224;11.678;2022-08-16T12:59:03;4.25;;;2.08;;
43628;SDS011;56545;48.224;11.678;2022-08-16T13:01:33;4.38;;;1.90;;
43628;SDS011;56545;48.224;11.678;2022-08-16T13:04:01;4.63;;;2.03;;
43628;SDS011;56545;48.224;11.678;2022-08-16T13:06:31;6.57;;;2.00;;
43628;SDS011;56545;48.224;11.678;2022-08-16T13:08:58;5.15;;;1.90;;
43628;SDS011;56545;48.224;11.678;2022-08-16T13:11:33;5.13;;;2.10;;
43628;SDS011;56545;48.224;11.678;2022-08-16T13:14:04;6.38;;;2.20;;
43628;SDS011;56545;48.224;11.678;2022-08-16T13:16:30;4.20;;;1.75;;
43628;SDS011;56545;48.224;11.678;2022-08-16T13:18:56;5.05;;;1.77;;
43628;SDS011;56545;48.224;11.678;2022-08-16T13:21:23;5.75;;;1.85;;
43628;SDS011;56545;48.224;11.678;2022-08-16T13:23:48;3.53;;;1.80;;
43628;SDS011;56545;48.224;11.678;2022-08-16T13:26:15;4.57;;;1.90;;
43628;SDS011;56545;48.224;11.678;2022-08-16T13:28:41;4.25;;;1.90;;
43628;SDS011;56545;48.224;11.678;2022-08-16T13:31:07;4.68;;;2.05;;
43628;SDS011;56545;48.224;11.678;2022-08-16T13:33:33;5.65;;;2.28;;
43628;SDS011;56545;48.224;11.678;2022-08-16T13:36:03;5.70;;;2.35;;
43628;SDS011;56545;48.224;11.678;2022-08-16T13:38:31;4.22;;;1.92;;
43628;SDS011;56545;48.224;11.678;2022-08-16T13:40:58;5.93;;;2.25;;
43628;SDS011;56545;48.224;11.678;2022-08-16T13:43:26;7.22;;;2.40;;
43628;SDS011;56545;48.224;11.678;2022-08-16T13:45:55;3.65;;;1.77;;
43628;SDS011;56545;48.224;11.678;2022-08-16T13:48:24;7.75;;;4.18;;
43628;SDS011;56545;48.224;11.678;2022-08-16T13:50:51;28.35;;;25.80;;
43628;SDS011;56545;48.224;11.678;2022-08-16T13:53:18;14.70;;;6.35;;
43628;SDS011;56545;48.224;11.678;2022-08-16T13:55:45;9.23;;;4.03;;
43628;SDS011;56545;48.224;11.678;2022-08-16T13:58:12;13.15;;;6.13;;
43628;SDS011;56545;48.224;11.678;2022-08-16T14:00:38;9.95;;;3.60;;
43628;SDS011;56545;48.224;11.678;2022-08-16T14:03:06;47.33;;;9.55;;
43628;SDS011;56545;48.224;11.678;2022-08-16T14:05:32;26.85;;;6.93;;
43628;SDS011;56545;48.224;11.678;2022-08-16T14:07:58;9.35;;;2.67;;
43628;SDS011;56545;48.224;11.678;2022-08-16T14:10:24;8.23;;;4.18;;
43628;SDS011;56545;48.224;11.678;2022-08-16T14:12:50;8.20;;;4.22;;
43628;SDS011;56545;48.224;11.678;2022-08-16T14:15:17;9.52;;;4.78;;
43628;SDS011;56545;48.224;11.678;2022-08-16T14:17:44;5.05;;;2.10;;
43628;SDS011;56545;48.224;11.678;2022-08-16T14:20:10;6.03;;;2.42;;
43628;SDS011;56545;48.224;11.678;2022-08-16T14:22:38;10.18;;;2.50;;
43628;SDS011;56545;48.224;11.678;2022-08-16T14:25:07;5.50;;;2.00;;
43628;SDS011;56545;48.224;11.678;2022-08-16T14:27:36;3.25;;;1.90;;
43628;SDS011;56545;48.224;11.678;2022-08-16T14:30:03;5.80;;;2.00;;
43628;SDS011;56545;48.224;11.678;2022-08-16T14:32:30;4.65;;;2.03;;
43628;SDS011;56545;48.224;11.678;2022-08-16T14:34:57;5.45;;;1.95;;
43628;SDS011;56545;48.224;11.678;2022-08-16T14:37:24;7.95;;;2.15;;